Time;durP1;ratioP1;P1;durP2;ratioP2;P2;SDS_P1;SDS_P2;PMS_P1;PMS_P2;Temp;Humidity;BMP_temperature;BMP_pressure;BME280_temperature;BME280_humidity;BME280_pressure;Samples;Min_cycle;Max_cycle;Signal;HPM_P1;HPM_P2
2022/08/01 00:00:26;;;;;;;4.97;2.47;;;23.70;1.00;;;;;;5077211;28;20032;-78
2022/08/01 00:02:52;;;;;;;3.13;2.38;;;23.70;1.00;;;;;;5076932;28;20123;-78
2022/08/01 00:05:17;;;;;;;3.63;2.53;;;23.80;1.00;;;;;;5073042;28;20029;-78
2022/08/01 00:07:43;;;;;;;3.67;2.53;;;23.70;1.00;;;;;;5075813;28;20036;-78
2022/08/01 00:10:14;;;;;;;6.45;2.60;;;23.80;1.00;;;;;;5077531;28;20429;-78
2022/08/01 00:12:41;;;;;;;3.38;2.50;;;23.80;1.00;;;;;;5076868;28;20024;-78
2022/08/01 00:15:08;;;;;;;5.00;2.38;;;23.60;1.00;;;;;;5076771;28;20035;-78
2022/08/01 00:17:34;;;;;;;2.72;2.40;;;23.60;1.00;;;;;;5075501;28;20043;-77
2022/08/01 00:20:00;;;;;;;3.13;2.58;;;23.60;1.00;;;;;;5072340;28;20072;-77
2022/08/01 00:22:26;;;;;;;3.55;2.60;;;23.50;1.00;;;;;;5078570;28;20071;-77
2022/08/01 00:24:51;;;;;;;4.93;2.60;;;23.50;1.00;;;;;;5076041;28;20032;-77
2022/08/01 00:27:17;;;;;;;3.40;2.50;;;23.50;1.00;;;;;;5076672;28;20069;-77
2022/08/01 00:29:42;;;;;;;2.92;2.33;;;23.30;1.00;;;;;;5075904;28;20086;-78
2022/08/01 00:32:08;;;;;;;3.25;2.28;;;23.40;1.00;;;;;;5071015;28;20028;-77
2022/08/01 00:34:34;;;;;;;2.83;2.47;;;23.30;1.00;;;;;;5077949;28;20154;-76
2022/08/01 00:36:59;;;;;;;4.95;2.58;;;23.50;1.00;;;;;;5076628;28;20090;-77
2022/08/01 00:39:25;;;;;;;3.10;2.50;;;23.50;1.00;;;;;;5075359;28;20028;-74
2022/08/01 00:41:51;;;;;;;2.95;2.47;;;23.40;1.00;;;;;;5076302;28;20032;-77
2022/08/01 00:44:16;;;;;;;3.90;2.55;;;23.20;1.00;;;;;;5072110;28;20020;-77
2022/08/01 00:46:42;;;;;;;3.90;2.47;;;23.20;1.00;;;;;;5074886;28;20024;-78
2022/08/01 00:49:08;;;;;;;3.53;2.63;;;23.10;1.00;;;;;;5077352;28;20086;-75
2022/08/01 00:51:33;;;;;;;3.38;2.55;;;23.10;1.00;;;;;;5075863;28;20408;-77
2022/08/01 00:54:00;;;;;;;3.20;2.63;;;23.10;1.00;;;;;;5075496;28;20432;-77
2022/08/01 00:56:27;;;;;;;3.80;2.55;;;23.00;1.00;;;;;;5074384;28;20031;-77
2022/08/01 00:58:54;;;;;;;4.45;2.72;;;22.80;1.00;;;;;;5072743;28;20013;-77
2022/08/01 01:01:21;;;;;;;3.15;2.47;;;22.80;1.00;;;;;;5077624;28;20077;-77
2022/08/01 01:03:51;;;;;;;5.07;2.67;;;22.90;1.00;;;;;;5075513;28;20511;-77
2022/08/01 01:06:44;;;;;;;3.33;2.50;;;22.90;1.00;;;;;;5075567;28;20398;-78
2022/08/01 01:09:18;;;;;;;6.05;2.50;;;22.90;1.00;;;;;;5075072;28;20541;-77
2022/08/01 01:12:13;;;;;;;3.10;2.80;;;23.00;1.00;;;;;;5075486;28;20024;-77
2022/08/01 01:14:48;;;;;;;3.47;2.70;;;23.00;1.00;;;;;;5030241;28;20061;-77
2022/08/01 01:17:19;;;;;;;8.35;2.55;;;22.80;1.00;;;;;;5030783;28;20064;-78
2022/08/01 01:19:50;;;;;;;3.08;2.80;;;22.70;1.00;;;;;;5030209;28;20444;-77
2022/08/01 01:22:52;;;;;;;4.38;2.50;;;22.40;1.00;;;;;;5028351;28;20032;-77
2022/08/01 01:25:38;;;;;;;4.75;2.60;;;22.20;1.00;;;;;;5029138;28;20033;-78
2022/08/01 01:28:24;;;;;;;3.00;2.80;;;22.20;1.00;;;;;;5035196;28;20432;-77
2022/08/01 01:30:53;;;;;;;3.38;3.00;;;22.30;1.00;;;;;;5028550;28;20199;-77
2022/08/01 01:33:20;;;;;;;4.40;2.95;;;22.30;1.00;;;;;;5029836;28;20033;-77
2022/08/01 01:35:49;;;;;;;3.15;2.85;;;22.30;1.00;;;;;;5029935;28;20030;-77
2022/08/01 01:38:20;;;;;;;3.25;2.90;;;22.30;1.00;;;;;;5029443;28;20041;-77
2022/08/01 01:40:48;;;;;;;3.67;2.80;;;22.30;1.00;;;;;;5030524;28;20034;-77
2022/08/01 01:43:16;;;;;;;5.13;2.88;;;22.30;1.00;;;;;;5028174;28;20034;-77
2022/08/01 01:45:47;;;;;;;2.95;2.75;;;22.30;1.00;;;;;;5029491;28;20100;-77
2022/08/01 01:48:18;;;;;;;3.30;2.50;;;22.20;1.00;;;;;;5029899;28;20037;-77
2022/08/01 01:50:46;;;;;;;4.03;2.83;;;22.20;1.00;;;;;;5036831;28;20047;-77
2022/08/01 01:53:15;;;;;;;2.83;2.63;;;22.10;1.00;;;;;;5085986;28;20039;-77
2022/08/01 01:55:43;;;;;;;3.05;2.70;;;22.20;1.00;;;;;;5074649;28;20370;-78
2022/08/01 01:58:11;;;;;;;2.97;2.78;;;22.10;1.00;;;;;;5075921;28;20393;-77
2022/08/01 02:00:38;;;;;;;3.05;2.85;;;21.90;1.00;;;;;;5074365;28;20082;-77
2022/08/01 02:03:07;;;;;;;4.13;3.00;;;21.90;1.00;;;;;;5073192;28;20020;-77
2022/08/01 02:05:34;;;;;;;3.53;2.55;;;21.90;1.00;;;;;;5072825;28;20415;-77
2022/08/01 02:08:02;;;;;;;3.22;2.75;;;21.80;1.00;;;;;;5070306;28;20020;-77
2022/08/01 02:10:30;;;;;;;4.30;2.78;;;22.00;1.00;;;;;;5076476;28;20036;-77
2022/08/01 02:12:59;;;;;;;3.28;2.88;;;22.10;1.00;;;;;;5074290;28;20029;-77
2022/08/01 02:15:27;;;;;;;2.78;2.50;;;22.00;1.00;;;;;;5074426;28;20028;-77
2022/08/01 02:17:54;;;;;;;4.25;2.58;;;22.10;1.00;;;;;;5074640;28;20062;-77
2022/08/01 02:20:20;;;;;;;4.00;2.72;;;21.90;1.00;;;;;;5071596;28;20024;-77
2022/08/01 02:22:53;;;;;;;4.25;2.95;;;22.00;1.00;;;;;;5072971;28;20024;-77
2022/08/01 02:25:33;;;;;;;3.30;2.50;;;22.00;1.00;;;;;;5074819;28;20499;-77
2022/08/01 02:28:25;;;;;;;4.25;2.60;;;22.00;1.00;;;;;;5073132;28;20090;-77
2022/08/01 02:30:50;;;;;;;5.35;2.80;;;21.90;1.00;;;;;;5074005;28;20051;-77
2022/08/01 02:33:24;;;;;;;4.53;2.45;;;21.80;1.00;;;;;;5074276;28;20028;-77
2022/08/01 02:35:53;;;;;;;3.72;2.80;;;21.60;1.00;;;;;;5074076;28;20568;-77
2022/08/01 02:38:24;;;;;;;5.13;2.90;;;21.60;1.00;;;;;;5071824;28;20024;-77
2022/08/01 02:40:52;;;;;;;3.75;2.83;;;21.40;1.00;;;;;;5072291;28;20100;-77
2022/08/01 02:43:23;;;;;;;2.97;2.78;;;21.50;1.00;;;;;;5074443;28;20108;-77
2022/08/01 02:45:53;;;;;;;3.78;2.92;;;21.50;1.00;;;;;;5073943;28;20044;-77
2022/08/01 02:48:21;;;;;;;3.67;2.80;;;21.50;1.00;;;;;;5074346;28;20514;-77
2022/08/01 02:50:49;;;;;;;3.75;2.58;;;21.50;1.00;;;;;;5073490;28;20424;-77
2022/08/01 02:53:17;;;;;;;3.65;3.00;;;21.40;1.00;;;;;;5071330;28;20020;-77
2022/08/01 02:55:47;;;;;;;4.03;2.75;;;21.40;1.00;;;;;;5073000;28;20056;-77
2022/08/01 02:58:15;;;;;;;5.03;2.70;;;21.50;1.00;;;;;;5073962;28;20024;-77
2022/08/01 03:00:44;;;;;;;3.28;2.55;;;21.30;1.00;;;;;;5073904;28;20074;-77
2022/08/01 03:03:10;;;;;;;3.03;2.78;;;21.40;1.00;;;;;;5073966;28;20048;-77
2022/08/01 03:05:37;;;;;;;3.03;2.80;;;21.40;1.00;;;;;;5073645;28;20042;-77
2022/08/01 03:08:03;;;;;;;3.13;2.55;;;21.30;1.00;;;;;;5053581;28;20021;-77
2022/08/01 03:10:31;;;;;;;3.22;2.70;;;21.20;1.00;;;;;;5082903;28;20024;-77
2022/08/01 03:13:00;;;;;;;2.75;2.55;;;21.30;1.00;;;;;;5076469;28;20706;-77
2022/08/01 03:15:27;;;;;;;2.70;2.38;;;21.20;1.00;;;;;;5078093;28;20021;-77
2022/08/01 03:17:55;;;;;;;5.47;2.70;;;21.20;1.00;;;;;;5077433;28;20028;-77
2022/08/01 03:20:24;;;;;;;3.35;2.70;;;21.30;1.00;;;;;;5074134;28;20040;-77
2022/08/01 03:22:52;;;;;;;2.63;2.42;;;21.20;1.00;;;;;;5074564;28;20472;-77
2022/08/01 03:25:19;;;;;;;2.88;2.60;;;21.10;1.00;;;;;;5079974;28;20430;-77
2022/08/01 03:27:51;;;;;;;4.03;2.85;;;21.10;1.00;;;;;;5077549;28;20047;-77
2022/08/01 03:30:17;;;;;;;4.25;2.92;;;21.10;1.00;;;;;;5077191;28;20076;-77
2022/08/01 03:32:43;;;;;;;3.15;2.85;;;21.10;1.00;;;;;;5077395;28;20071;-77
2022/08/01 03:35:09;;;;;;;4.93;2.65;;;20.90;1.00;;;;;;5073942;28;20029;-77
2022/08/01 03:37:40;;;;;;;4.15;2.65;;;20.90;1.00;;;;;;5078233;28;20028;-77
2022/08/01 03:40:21;;;;;;;3.75;3.30;;;20.90;1.00;;;;;;5078299;28;20020;-76
2022/08/01 03:42:50;;;;;;;2.78;2.58;;;20.90;1.00;;;;;;5077293;28;20049;-77
2022/08/01 03:45:45;;;;;;;2.83;2.63;;;20.90;1.00;;;;;;5077314;28;20057;-77
2022/08/01 03:48:16;;;;;;;3.35;2.78;;;20.90;1.00;;;;;;5075541;28;20136;-77
2022/08/01 03:50:46;;;;;;;3.05;2.85;;;20.80;1.00;;;;;;5076966;28;20031;-77
2022/08/01 03:53:12;;;;;;;3.78;2.42;;;20.70;1.00;;;;;;5073739;28;20400;-77
2022/08/01 03:55:40;;;;;;;2.88;2.50;;;20.70;1.00;;;;;;5077361;28;20020;-77
2022/08/01 03:58:07;;;;;;;4.55;2.80;;;20.60;1.00;;;;;;5077813;28;20385;-77
2022/08/01 04:00:35;;;;;;;4.63;2.90;;;20.50;1.00;;;;;;5077115;28;20029;-77
2022/08/01 04:03:01;;;;;;;3.35;2.95;;;20.50;1.00;;;;;;5076393;28;20520;-77
2022/08/01 04:05:27;;;;;;;3.22;2.72;;;20.60;1.00;;;;;;5075688;28;20507;-77
2022/08/01 04:07:55;;;;;;;2.78;2.58;;;20.70;1.00;;;;;;5073821;28;20029;-77
2022/08/01 04:10:25;;;;;;;3.03;2.72;;;20.50;1.00;;;;;;5078543;28;20119;-76
2022/08/01 04:12:51;;;;;;;3.47;3.15;;;20.50;1.00;;;;;;5077111;28;20047;-76
2022/08/01 04:15:16;;;;;;;5.68;2.97;;;20.60;1.00;;;;;;5076527;28;20024;-77
2022/08/01 04:17:42;;;;;;;3.83;2.83;;;20.40;1.00;;;;;;5076139;28;20052;-75
2022/08/01 04:20:08;;;;;;;5.00;3.08;;;20.30;1.00;;;;;;5073010;28;20067;-77
2022/08/01 04:22:35;;;;;;;4.93;3.00;;;20.40;1.00;;;;;;5077223;28;20047;-77
2022/08/01 04:25:04;;;;;;;4.47;3.03;;;20.20;1.00;;;;;;5075441;28;20021;-76
2022/08/01 04:27:35;;;;;;;3.65;3.10;;;20.30;1.00;;;;;;5076251;28;20023;-77
2022/08/01 04:30:02;;;;;;;3.17;2.88;;;20.40;1.00;;;;;;5076264;28;20049;-77
2022/08/01 04:32:33;;;;;;;3.70;2.95;;;20.20;1.00;;;;;;5074923;28;20023;-77
2022/08/01 04:35:01;;;;;;;5.93;3.42;;;20.20;1.00;;;;;;5072250;28;20234;-77
2022/08/01 04:37:28;;;;;;;4.63;2.85;;;20.30;1.00;;;;;;5078160;28;20032;-77
2022/08/01 04:39:54;;;;;;;3.33;2.92;;;20.40;1.00;;;;;;5074714;28;20385;-76
2022/08/01 04:42:21;;;;;;;3.85;3.00;;;20.50;1.00;;;;;;5075978;28;20358;-77
2022/08/01 04:44:46;;;;;;;3.53;3.22;;;20.60;1.00;;;;;;5075867;28;20028;-77
2022/08/01 04:47:13;;;;;;;3.78;2.85;;;20.30;1.00;;;;;;5072870;28;20043;-77
2022/08/01 04:49:39;;;;;;;3.20;2.90;;;20.20;1.00;;;;;;5075981;28;20116;-77
2022/08/01 04:52:06;;;;;;;4.72;3.20;;;20.30;1.00;;;;;;5076792;28;20028;-77
2022/08/01 04:54:36;;;;;;;4.50;3.20;;;20.30;1.00;;;;;;5075864;28;20111;-77
2022/08/01 04:57:03;;;;;;;5.13;3.10;;;20.10;1.00;;;;;;5076064;28;20026;-77
2022/08/01 04:59:41;;;;;;;3.90;2.92;;;20.10;1.00;;;;;;5074265;28;20031;-77
2022/08/01 05:02:10;;;;;;;3.50;3.20;;;20.00;1.00;;;;;;5056187;28;20024;-77
2022/08/01 05:04:36;;;;;;;5.47;3.10;;;20.00;1.00;;;;;;5076169;28;20024;-77
2022/08/01 05:07:03;;;;;;;3.63;3.30;;;20.10;1.00;;;;;;5076257;28;20542;-77
2022/08/01 05:09:28;;;;;;;4.97;3.38;;;20.00;1.00;;;;;;5075348;28;20024;-77
2022/08/01 05:11:54;;;;;;;4.80;3.08;;;19.90;1.00;;;;;;5075847;28;20542;-77
2022/08/01 05:14:20;;;;;;;3.53;3.05;;;20.00;1.00;;;;;;5072738;28;20439;-77
2022/08/01 05:16:46;;;;;;;4.68;3.45;;;20.10;1.00;;;;;;5073736;28;20043;-77
2022/08/01 05:19:12;;;;;;;5.05;3.40;;;20.20;1.00;;;;;;5076925;28;20029;-77
2022/08/01 05:21:37;;;;;;;5.07;3.10;;;20.20;1.00;;;;;;5073588;28;20428;-77
2022/08/01 05:24:05;;;;;;;4.47;3.35;;;20.20;1.00;;;;;;5075532;28;20038;-76
2022/08/01 05:26:31;;;;;;;3.88;3.08;;;20.40;1.00;;;;;;5074023;28;20107;-77
2022/08/01 05:28:57;;;;;;;5.72;3.17;;;20.30;1.00;;;;;;5070550;28;20060;-79
2022/08/01 05:31:22;;;;;;;7.07;3.65;;;20.40;1.00;;;;;;5077373;28;20083;-79
2022/08/01 05:33:48;;;;;;;5.22;3.40;;;20.60;1.00;;;;;;5074941;28;20428;-79
2022/08/01 05:36:14;;;;;;;3.53;3.00;;;20.80;1.00;;;;;;5074231;28;20115;-79
2022/08/01 05:38:39;;;;;;;6.93;3.22;;;20.80;1.00;;;;;;5075259;28;20567;-79
2022/08/01 05:41:05;;;;;;;4.18;3.20;;;20.70;1.00;;;;;;5069400;28;20575;-79
2022/08/01 05:43:31;;;;;;;3.30;2.80;;;20.80;1.00;;;;;;5076564;28;20033;-79
2022/08/01 05:45:58;;;;;;;4.00;3.03;;;20.90;1.00;;;;;;5074341;28;20040;-79
2022/08/01 05:48:23;;;;;;;3.30;3.00;;;21.10;1.00;;;;;;5073790;28;20012;-79
2022/08/01 05:50:49;;;;;;;3.90;2.80;;;21.20;1.00;;;;;;5074603;28;20523;-80
2022/08/01 05:53:15;;;;;;;3.75;3.35;;;21.30;1.00;;;;;;5071691;28;20024;-79
2022/08/01 05:55:41;;;;;;;5.55;3.20;;;21.30;1.00;;;;;;5073904;28;20051;-79
2022/08/01 05:58:06;;;;;;;4.70;2.90;;;21.30;1.00;;;;;;5075539;28;20031;-79
2022/08/01 06:00:32;;;;;;;5.32;3.08;;;21.30;1.00;;;;;;5076614;28;20036;-79
2022/08/01 06:02:58;;;;;;;5.70;2.95;;;21.40;1.00;;;;;;5082691;28;20025;-78
2022/08/01 06:05:23;;;;;;;6.05;3.13;;;21.50;1.00;;;;;;5072179;28;20477;-79
2022/08/01 06:07:49;;;;;;;4.95;2.90;;;21.60;1.00;;;;;;5086895;28;20021;-79
2022/08/01 06:10:14;;;;;;;4.43;2.88;;;21.80;1.00;;;;;;5075939;28;20036;-78
2022/08/01 06:12:40;;;;;;;4.05;2.95;;;21.80;1.00;;;;;;5075358;28;20369;-78
2022/08/01 06:15:07;;;;;;;4.10;3.28;;;21.80;1.00;;;;;;5074504;28;20569;-76
2022/08/01 06:17:33;;;;;;;5.10;2.90;;;21.90;1.00;;;;;;5083108;28;20019;-78
2022/08/01 06:19:59;;;;;;;5.43;2.88;;;22.00;1.00;;;;;;5072735;28;20032;-76
2022/08/01 06:22:24;;;;;;;4.35;3.20;;;22.00;1.00;;;;;;5075875;28;20436;-77
2022/08/01 06:24:50;;;;;;;3.65;2.92;;;22.10;1.00;;;;;;5073979;28;20025;-77
2022/08/01 06:27:16;;;;;;;3.83;2.80;;;22.20;1.00;;;;;;5070241;28;20024;-77
2022/08/01 06:29:42;;;;;;;6.72;3.13;;;22.20;1.00;;;;;;5074056;28;20047;-76
2022/08/01 06:32:09;;;;;;;4.72;3.20;;;22.30;1.00;;;;;;5070322;28;20108;-77
2022/08/01 06:34:35;;;;;;;4.80;3.00;;;22.50;1.00;;;;;;5075081;28;20133;-76
2022/08/01 06:37:00;;;;;;;7.63;3.28;;;22.50;1.00;;;;;;5074547;28;20071;-77
2022/08/01 06:39:26;;;;;;;5.00;2.70;;;22.60;1.00;;;;;;5072660;28;20020;-76
2022/08/01 06:41:52;;;;;;;4.68;2.80;;;22.70;1.00;;;;;;5073469;28;20123;-77
2022/08/01 06:44:17;;;;;;;3.83;2.80;;;22.80;1.00;;;;;;5071541;28;20154;-77
2022/08/01 06:46:43;;;;;;;4.05;2.83;;;22.90;1.00;;;;;;5074806;28;20504;-77
2022/08/01 06:49:09;;;;;;;5.55;3.00;;;23.00;1.00;;;;;;5086693;28;20027;-78
2022/08/01 06:51:34;;;;;;;6.25;2.70;;;23.00;1.00;;;;;;5080899;28;20036;-77
2022/08/01 06:54:00;;;;;;;4.43;2.63;;;23.10;1.00;;;;;;5077586;28;20066;-78
2022/08/01 06:56:25;;;;;;;4.82;2.33;;;23.40;1.00;;;;;;5076680;28;20062;-78
2022/08/01 06:58:51;;;;;;;7.05;2.65;;;23.20;1.00;;;;;;5075290;28;20024;-78
2022/08/01 07:01:17;;;;;;;5.15;2.58;;;23.30;1.00;;;;;;5079963;28;20100;-78
2022/08/01 07:03:42;;;;;;;4.00;2.60;;;23.40;1.00;;;;;;5078042;28;21188;-78
2022/08/01 07:06:09;;;;;;;3.83;2.40;;;23.40;1.00;;;;;;5078417;28;20495;-79
2022/08/01 07:08:35;;;;;;;7.20;2.50;;;23.70;1.00;;;;;;5077597;28;20032;-79
2022/08/01 07:11:01;;;;;;;3.88;2.60;;;23.70;1.00;;;;;;5073085;28;22646;-78
2022/08/01 07:13:27;;;;;;;11.13;2.78;;;23.70;1.00;;;;;;5079337;28;20060;-78
2022/08/01 07:15:53;;;;;;;3.15;2.70;;;23.70;1.00;;;;;;5077459;28;20036;-78
2022/08/01 07:18:19;;;;;;;3.20;2.60;;;23.70;1.00;;;;;;5082486;28;20024;-79
2022/08/01 07:20:48;;;;;;;3.92;2.60;;;23.80;1.00;;;;;;5078835;28;20422;-79
2022/08/01 07:23:14;;;;;;;6.05;2.72;;;23.90;1.00;;;;;;5089490;28;20013;-79
2022/08/01 07:25:39;;;;;;;5.97;2.90;;;23.80;1.00;;;;;;5077244;28;20032;-79
2022/08/01 07:28:05;;;;;;;3.83;2.63;;;23.80;1.00;;;;;;5083468;28;20028;-79
2022/08/01 07:30:31;;;;;;;2.70;2.50;;;23.90;1.00;;;;;;5080812;28;20496;-79
2022/08/01 07:32:56;;;;;;;4.03;2.72;;;23.90;1.00;;;;;;5083164;28;20036;-79
2022/08/01 07:35:22;;;;;;;4.15;2.90;;;24.00;1.00;;;;;;5075356;28;20602;-79
2022/08/01 07:37:48;;;;;;;4.38;2.70;;;24.10;1.00;;;;;;5089265;28;20035;-79
2022/08/01 07:40:14;;;;;;;4.75;2.70;;;24.20;1.00;;;;;;5078730;28;20119;-79
2022/08/01 07:42:44;;;;;;;5.85;2.83;;;24.20;1.00;;;;;;5077050;28;20391;-78
2022/08/01 07:45:11;;;;;;;7.07;3.03;;;24.30;1.00;;;;;;5076719;28;20032;-80
2022/08/01 07:47:37;;;;;;;3.70;2.72;;;24.40;1.00;;;;;;5077554;28;20054;-80
2022/08/01 07:50:04;;;;;;;5.35;3.10;;;24.40;1.00;;;;;;5088076;28;20029;-79
2022/08/01 07:52:33;;;;;;;5.22;2.90;;;24.50;1.00;;;;;;5091260;28;20024;-80
2022/08/01 07:54:58;;;;;;;7.38;3.15;;;24.60;1.00;;;;;;5076488;28;20028;-80
2022/08/01 07:57:24;;;;;;;6.90;3.05;;;24.80;1.00;;;;;;5078355;28;20078;-80
2022/08/01 07:59:51;;;;;;;7.30;3.17;;;24.90;1.00;;;;;;5076740;28;20123;-80
2022/08/01 08:02:17;;;;;;;8.38;3.00;;;25.00;1.00;;;;;;5084527;28;20043;-80
2022/08/01 08:04:42;;;;;;;11.27;3.33;;;25.00;1.00;;;;;;5076269;28;20488;-80
2022/08/01 08:07:08;;;;;;;7.05;2.97;;;25.00;1.00;;;;;;5077853;28;20099;-80
2022/08/01 08:09:34;;;;;;;5.60;3.13;;;25.10;1.00;;;;;;5076054;28;20103;-80
2022/08/01 08:11:59;;;;;;;7.72;2.92;;;25.10;1.00;;;;;;5075011;28;20035;-80
2022/08/01 08:14:25;;;;;;;4.43;3.03;;;25.20;1.00;;;;;;5074940;28;20040;-80
2022/08/01 08:16:51;;;;;;;4.90;3.03;;;25.30;1.00;;;;;;5073779;28;20039;-79
2022/08/01 08:19:17;;;;;;;12.07;3.15;;;25.10;1.00;;;;;;5078715;28;20039;-80
2022/08/01 08:21:43;;;;;;;5.13;3.03;;;25.20;1.00;;;;;;5084194;28;20020;-80
2022/08/01 08:24:23;;;;;;;2.90;2.60;;;25.30;1.00;;;;;;5082973;28;20044;-80
2022/08/01 08:26:52;;;;;;;5.28;2.95;;;25.50;1.00;;;;;;5079984;28;20051;-80
2022/08/01 08:29:19;;;;;;;6.05;2.90;;;25.50;1.00;;;;;;5071751;28;20048;-80
2022/08/01 08:31:45;;;;;;;3.70;2.90;;;25.60;1.00;;;;;;5087210;28;20058;-79
2022/08/01 08:34:11;;;;;;;5.90;2.92;;;25.60;1.00;;;;;;5076655;28;20029;-80
2022/08/01 08:36:37;;;;;;;6.10;3.03;;;25.80;1.00;;;;;;5080517;28;20027;-80
2022/08/01 08:39:03;;;;;;;6.65;2.75;;;25.90;1.00;;;;;;5083786;28;20028;-79
2022/08/01 08:41:30;;;;;;;5.80;2.83;;;26.10;1.00;;;;;;5087181;28;20024;-80
2022/08/01 08:43:58;;;;;;;4.40;2.55;;;26.10;1.00;;;;;;5077008;28;20031;-80
2022/08/01 08:46:28;;;;;;;7.88;2.78;;;26.10;1.00;;;;;;5085818;28;20035;-79
2022/08/01 08:48:55;;;;;;;5.03;2.80;;;26.20;1.00;;;;;;5076108;28;20108;-80
2022/08/01 08:51:23;;;;;;;4.35;2.70;;;26.40;1.00;;;;;;5080553;28;20036;-79
2022/08/01 08:53:51;;;;;;;3.25;2.33;;;26.40;1.00;;;;;;5085472;28;20487;-81
2022/08/01 08:56:18;;;;;;;2.70;2.50;;;26.40;1.00;;;;;;5076005;28;20052;-81
2022/08/01 08:58:45;;;;;;;2.72;2.53;;;26.60;1.00;;;;;;5087829;28;20024;-81
2022/08/01 09:01:12;;;;;;;6.05;2.80;;;26.70;1.00;;;;;;5087658;28;20085;-80
2022/08/01 09:03:39;;;;;;;4.28;2.35;;;26.80;1.00;;;;;;5076064;28;20512;-80
2022/08/01 09:06:05;;;;;;;3.42;2.40;;;26.80;1.00;;;;;;5082438;28;20090;-82
2022/08/01 09:08:30;;;;;;;3.78;2.50;;;27.00;1.00;;;;;;5070920;28;20025;-80
2022/08/01 09:10:56;;;;;;;4.03;2.45;;;27.10;1.00;;;;;;5078171;28;20093;-80
2022/08/01 09:13:22;;;;;;;5.35;2.97;;;27.00;1.00;;;;;;5077306;28;20384;-80
2022/08/01 09:15:53;;;;;;;2.83;2.60;;;27.00;1.00;;;;;;5074301;28;20504;-80
2022/08/01 09:18:29;;;;;;;6.20;2.60;;;27.20;1.00;;;;;;5075033;28;20094;-80
2022/08/01 09:21:17;;;;;;;3.28;2.30;;;27.30;1.00;;;;;;5072786;28;20062;-80
2022/08/01 09:23:52;;;;;;;5.20;2.75;;;27.40;1.00;;;;;;5075762;28;20491;-80
2022/08/01 09:26:30;;;;;;;5.20;2.90;;;27.60;1.00;;;;;;5072642;28;20024;-80
2022/08/01 09:28:55;;;;;;;4.07;2.17;;;27.80;1.00;;;;;;5070993;28;20029;-80
2022/08/01 09:31:21;;;;;;;2.10;1.90;;;27.70;1.00;;;;;;5078239;28;20048;-80
2022/08/01 09:33:58;;;;;;;2.30;2.00;;;27.80;1.00;;;;;;5075251;28;20039;-80
2022/08/01 09:36:27;;;;;;;2.65;1.90;;;27.90;1.00;;;;;;5074876;28;20020;-80
2022/08/01 09:38:54;;;;;;;1.95;1.65;;;28.10;1.00;;;;;;5079301;28;20483;-80
2022/08/01 09:41:32;;;;;;;3.17;1.60;;;28.30;1.00;;;;;;5086245;28;20029;-80
2022/08/01 09:43:57;;;;;;;6.03;1.63;;;28.10;1.00;;;;;;5079853;28;20094;-80
2022/08/01 09:46:24;;;;;;;2.00;1.80;;;28.30;1.00;;;;;;5076985;28;20440;-80
2022/08/01 09:49:02;;;;;;;2.35;1.77;;;28.40;1.00;;;;;;5080188;28;20028;-80
2022/08/01 09:51:33;;;;;;;2.15;1.90;;;28.50;1.00;;;;;;5080341;28;20032;-80
2022/08/01 09:53:59;;;;;;;2.38;1.60;;;28.60;1.00;;;;;;5082082;28;20090;-80
2022/08/01 09:56:25;;;;;;;3.85;1.80;;;28.60;1.00;;;;;;5073354;28;20413;-80
2022/08/01 09:58:51;;;;;;;2.30;1.60;;;28.70;1.00;;;;;;5071648;28;20084;-80
2022/08/01 10:01:23;;;;;;;2.22;1.90;;;28.60;1.00;;;;;;5076735;28;20024;-80
2022/08/01 10:04:09;;;;;;;2.33;2.13;;;28.40;1.00;;;;;;5074565;28;20112;-80
2022/08/01 10:06:36;;;;;;;2.38;1.70;;;28.50;1.00;;;;;;5074690;28;20020;-80
2022/08/01 10:09:02;;;;;;;1.30;1.20;;;28.70;1.00;;;;;;5074492;28;20028;-80
2022/08/01 10:11:28;;;;;;;2.20;1.50;;;28.80;1.00;;;;;;5073139;28;20032;-80
2022/08/01 10:13:56;;;;;;;3.63;1.90;;;28.70;1.00;;;;;;5086211;28;20519;-80
2022/08/01 10:16:22;;;;;;;2.35;1.80;;;28.70;1.00;;;;;;5076892;28;20044;-80
2022/08/01 10:18:48;;;;;;;2.28;1.70;;;28.90;1.00;;;;;;5079640;28;20028;-80
2022/08/01 10:21:14;;;;;;;2.72;1.90;;;29.10;1.00;;;;;;5074298;28;20399;-80
2022/08/01 10:23:42;;;;;;;2.45;1.70;;;29.00;1.00;;;;;;5084906;28;20043;-80
2022/08/01 10:26:10;;;;;;;2.08;1.98;;;29.00;1.00;;;;;;5070494;28;20155;-80
2022/08/01 10:28:37;;;;;;;5.35;2.75;;;29.10;1.00;;;;;;5075908;28;20029;-80
2022/08/01 10:31:03;;;;;;;1.80;1.70;;;29.30;1.00;;;;;;5072575;28;20050;-80
2022/08/01 10:33:31;;;;;;;2.17;2.00;;;29.40;1.00;;;;;;5073738;28;20098;-81
2022/08/01 10:35:58;;;;;;;2.38;1.80;;;29.70;1.00;;;;;;5074317;28;20046;-80
2022/08/01 10:38:23;;;;;;;1.85;1.73;;;29.80;1.00;;;;;;5072284;28;20526;-80
2022/08/01 10:40:51;;;;;;;2.65;2.22;;;29.50;1.00;;;;;;5082660;28;20032;-80
2022/08/01 10:43:17;;;;;;;3.53;1.75;;;29.40;1.00;;;;;;5075753;28;20028;-80
2022/08/01 10:45:43;;;;;;;3.47;2.20;;;29.60;1.00;;;;;;5074254;28;20036;-80
2022/08/01 10:48:14;;;;;;;1.70;1.60;;;29.60;1.00;;;;;;5072148;28;20051;-80
2022/08/01 10:50:45;;;;;;;2.75;1.70;;;29.50;1.00;;;;;;5083028;28;20032;-81
2022/08/01 10:53:12;;;;;;;2.15;1.85;;;29.80;1.00;;;;;;5069177;28;20551;-81
2022/08/01 10:55:56;;;;;;;2.97;1.75;;;29.90;1.00;;;;;;5088262;28;20024;-82
2022/08/01 10:58:36;;;;;;;2.10;1.55;;;30.00;1.00;;;;;;5076163;28;20032;-84
2022/08/01 11:01:24;;;;;;;3.22;1.60;;;30.20;1.00;;;;;;5073281;28;20451;-80
2022/08/01 11:04:08;;;;;;;2.25;2.05;;;30.30;1.00;;;;;;5073659;28;20056;-80
2022/08/01 11:06:34;;;;;;;2.03;1.73;;;30.30;1.00;;;;;;5074479;28;20025;-81
2022/08/01 11:09:15;;;;;;;3.47;1.58;;;30.20;1.00;;;;;;5071840;28;20545;-80
2022/08/01 11:12:09;;;;;;;2.83;1.92;;;30.40;1.00;;;;;;5062652;28;20052;-80
2022/08/01 11:14:57;;;;;;;1.98;1.80;;;30.60;1.00;;;;;;5083530;28;20032;-79
2022/08/01 11:17:43;;;;;;;3.28;1.77;;;30.90;1.00;;;;;;5084806;28;20020;-79
2022/08/01 11:20:09;;;;;;;2.85;1.60;;;30.80;1.00;;;;;;5058601;28;20032;-79
2022/08/01 11:22:57;;;;;;;1.55;1.45;;;31.00;1.00;;;;;;5075332;28;20028;-79
2022/08/01 11:25:22;;;;;;;5.38;1.48;;;33.20;1.00;;;;;;5074619;28;20508;-79
2022/08/01 11:27:48;;;;;;;3.75;1.50;;;36.80;1.00;;;;;;5073925;28;20106;-80
2022/08/01 11:30:14;;;;;;;1.38;1.27;;;38.70;1.00;;;;;;5073247;28;20041;-80
2022/08/01 11:32:46;;;;;;;1.58;1.48;;;39.30;1.00;;;;;;5073641;28;20036;-79
2022/08/01 11:35:12;;;;;;;2.95;1.58;;;41.00;1.00;;;;;;5073826;28;20012;-80
2022/08/01 11:37:38;;;;;;;1.40;1.30;;;40.80;1.00;;;;;;5077738;28;20039;-79
2022/08/01 11:40:25;;;;;;;1.88;1.58;;;41.50;1.00;;;;;;5076287;28;20385;-80
2022/08/01 11:43:13;;;;;;;1.15;1.10;;;41.00;1.00;;;;;;5076635;28;20028;-80
2022/08/01 11:45:55;;;;;;;3.28;1.60;;;40.90;1.00;;;;;;5076034;28;20020;-80
2022/08/01 11:48:23;;;;;;;2.15;1.20;;;42.70;1.00;;;;;;5076919;28;20043;-80
2022/08/01 11:50:51;;;;;;;1.55;1.10;;;42.70;1.00;;;;;;5076986;28;20043;-80
2022/08/01 11:53:19;;;;;;;1.40;1.10;;;43.00;1.00;;;;;;5074655;28;20024;-80
2022/08/01 11:55:53;;;;;;;1.23;1.13;;;44.10;1.00;;;;;;5076519;28;20032;-80
2022/08/01 11:58:24;;;;;;;2.22;1.20;;;43.60;1.00;;;;;;5077237;28;20102;-80
2022/08/01 12:00:58;;;;;;;2.38;1.30;;;44.80;1.00;;;;;;5076454;28;20036;-80
2022/08/01 12:03:32;;;;;;;2.78;1.10;;;44.10;1.00;;;;;;5076908;28;20553;-80
2022/08/01 12:05:58;;;;;;;1.83;1.50;;;44.40;1.00;;;;;;5076938;28;20028;-80
2022/08/01 12:08:36;;;;;;;2.33;1.60;;;44.90;1.00;;;;;;5074623;28;20111;-80
2022/08/01 12:11:05;;;;;;;2.40;1.50;;;45.00;1.00;;;;;;5088306;28;20123;-80
2022/08/01 12:13:44;;;;;;;2.42;1.42;;;45.30;1.00;;;;;;5078224;28;20048;-80
2022/08/01 12:16:11;;;;;;;4.53;1.88;;;43.60;1.00;;;;;;5077440;28;20036;-79
2022/08/01 12:18:43;;;;;;;3.55;1.50;;;45.70;1.00;;;;;;5076182;28;20028;-80
2022/08/01 12:21:09;;;;;;;2.22;1.20;;;46.10;1.00;;;;;;5077205;28;20059;-82
2022/08/01 12:23:34;;;;;;;1.35;1.20;;;43.70;1.00;;;;;;5075760;28;20051;-80
2022/08/01 12:26:00;;;;;;;1.40;1.30;;;44.50;1.00;;;;;;5081615;28;20031;-80
2022/08/01 12:28:26;;;;;;;1.40;1.30;;;45.10;1.00;;;;;;5082444;28;20020;-80
2022/08/01 12:30:52;;;;;;;1.58;1.10;;;46.00;1.00;;;;;;5082772;28;20045;-80
2022/08/01 12:33:19;;;;;;;1.20;1.00;;;45.90;1.00;;;;;;5083977;28;20024;-80
2022/08/01 12:35:45;;;;;;;1.48;1.10;;;46.30;1.00;;;;;;5086079;28;20016;-80
2022/08/01 12:38:19;;;;;;;5.25;1.33;;;45.50;1.00;;;;;;5082348;28;20041;-79
2022/08/01 12:40:47;;;;;;;4.97;1.50;;;45.20;1.00;;;;;;5082795;28;20024;-80
2022/08/01 12:43:22;;;;;;;2.35;1.10;;;46.00;1.00;;;;;;5078181;28;20383;-80
2022/08/01 12:45:50;;;;;;;1.33;1.17;;;46.50;1.00;;;;;;5075976;28;20060;-80
2022/08/01 12:48:17;;;;;;;1.38;1.20;;;46.50;1.00;;;;;;5078883;28;20117;-80
2022/08/01 12:50:47;;;;;;;2.55;1.20;;;46.10;1.00;;;;;;5088719;28;20039;-80
2022/08/01 12:53:18;;;;;;;1.75;1.10;;;46.10;1.00;;;;;;5078488;28;20021;-80
2022/08/01 12:55:46;;;;;;;2.55;1.08;;;45.40;1.00;;;;;;5083562;28;20023;-80
2022/08/01 12:58:14;;;;;;;1.63;1.30;;;45.40;1.00;;;;;;5087174;28;20113;-80
2022/08/01 13:00:43;;;;;;;2.75;1.30;;;44.20;1.00;;;;;;5077230;28;20031;-80
2022/08/01 13:03:11;;;;;;;2.15;1.00;;;43.50;1.00;;;;;;5078830;28;20016;-81
2022/08/01 13:05:56;;;;;;;1.30;1.10;;;43.50;1.00;;;;;;5086245;28;20036;-80